createdAt,value
2017-09-11T00:02:12.073Z,12.70
2017-09-11T00:04:39.023Z,12.70
2017-09-11T00:07:04.954Z,12.80
2017-09-11T00:09:35.670Z,12.80
2017-09-11T00:12:07.231Z,12.80
2017-09-11T00:14:36.645Z,12.80
2017-09-11T00:17:02.674Z,12.90
2017-09-11T00:19:28.689Z,12.90
2017-09-11T00:21:58.101Z,12.90
2017-09-11T00:24:24.045Z,12.80
2017-09-11T00:26:50.977Z,12.80
2017-09-11T00:29:16.905Z,12.80
2017-09-11T00:31:42.858Z,12.70
2017-09-11T00:34:09.542Z,12.60
2017-09-11T00:36:35.509Z,12.60
2017-09-11T00:39:01.433Z,12.60
2017-09-11T00:41:38.550Z,12.60
2017-09-11T00:44:19.030Z,12.60
2017-09-11T00:46:48.914Z,12.60
2017-09-11T00:49:20.749Z,12.60
2017-09-11T00:51:53.041Z,12.60
2017-09-11T00:54:21.010Z,12.60
2017-09-11T00:56:47.034Z,12.70
2017-09-11T00:59:12.967Z,12.70
2017-09-11T01:01:39.004Z,12.80
2017-09-11T01:04:05.073Z,12.70
2017-09-11T01:06:31.129Z,12.70
2017-09-11T01:08:58.125Z,12.70
2017-09-11T01:11:25.886Z,12.70
2017-09-11T01:13:53.865Z,12.60
2017-09-11T01:16:21.614Z,12.70
2017-09-11T01:18:47.679Z,12.70
2017-09-11T01:21:13.690Z,12.80
2017-09-11T01:23:40.441Z,12.80
2017-09-11T01:26:07.190Z,12.90
2017-09-11T01:28:33.925Z,12.90
2017-09-11T01:31:06.409Z,12.80
2017-09-11T01:33:32.378Z,12.80
2017-09-11T01:36:05.056Z,12.80
2017-09-11T01:38:31.028Z,12.90
2017-09-11T01:40:57.070Z,12.80
2017-09-11T01:43:24.029Z,12.80
2017-09-11T01:45:55.974Z,12.80
2017-09-11T01:48:33.592Z,12.90
2017-09-11T01:51:00.329Z,12.80
2017-09-11T01:53:28.096Z,12.90
2017-09-11T01:55:55.053Z,12.90
2017-09-11T01:58:22.814Z,12.90
2017-09-11T02:00:50.570Z,12.90
2017-09-11T02:03:16.602Z,12.80
2017-09-11T02:05:42.546Z,12.90
2017-09-11T02:08:09.202Z,13.00
2017-09-11T02:10:38.598Z,13.00
2017-09-11T02:13:10.866Z,13.00
2017-09-11T02:15:47.634Z,12.90
2017-09-11T02:18:13.673Z,13.00
2017-09-11T02:20:40.397Z,13.00
2017-09-11T02:23:06.330Z,13.00
2017-09-11T02:25:32.349Z,13.00
2017-09-11T02:27:58.277Z,13.00
2017-09-11T02:30:25.241Z,13.00
2017-09-11T02:32:51.255Z,13.00
2017-09-11T02:35:17.223Z,13.00
2017-09-11T02:37:48.135Z,13.10
2017-09-11T02:40:21.582Z,13.10
2017-09-11T02:42:47.555Z,13.10
2017-09-11T02:45:17.570Z,13.10
2017-09-11T02:47:47.388Z,13.20
2017-09-11T02:50:15.370Z,13.20
2017-09-11T02:52:44.485Z,13.20
2017-09-11T02:55:15.105Z,13.30
2017-09-11T02:57:41.130Z,13.20
2017-09-11T03:00:14.486Z,13.30
2017-09-11T03:02:40.412Z,13.30
2017-09-11T03:05:14.818Z,13.30
2017-09-11T03:07:45.517Z,13.30
2017-09-11T03:10:11.547Z,13.30
2017-09-11T03:12:37.559Z,13.30
2017-09-11T03:15:05.546Z,13.30
2017-09-11T03:17:31.565Z,13.30
2017-09-11T03:20:03.879Z,13.40
2017-09-11T03:22:44.450Z,13.40
2017-09-11T03:25:21.201Z,13.40
2017-09-11T03:27:48.137Z,13.40
2017-09-11T03:30:14.164Z,13.40
2017-09-11T03:32:40.194Z,13.40
2017-09-11T03:35:06.230Z,13.50
2017-09-11T03:37:34.206Z,13.40
2017-09-11T03:40:02.894Z,13.50
2017-09-11T03:42:28.934Z,13.50
2017-09-11T03:44:57.589Z,13.50
2017-09-11T03:47:23.507Z,13.50
2017-09-11T03:49:49.441Z,13.50
2017-09-11T03:52:20.701Z,13.50
2017-09-11T03:54:53.225Z,13.50
2017-09-11T03:57:22.793Z,13.50
2017-09-11T03:59:48.833Z,13.50
2017-09-11T04:02:17.961Z,13.50
2017-09-11T04:04:43.948Z,13.50
2017-09-11T04:07:10.912Z,13.50
2017-09-11T04:09:47.955Z,13.50
2017-09-11T04:12:14.953Z,13.50
2017-09-11T04:14:41.709Z,13.50
2017-09-11T04:17:08.382Z,13.60
2017-09-11T04:19:37.538Z,13.50
2017-09-11T04:22:04.202Z,13.60
2017-09-11T04:24:31.231Z,13.60
2017-09-11T04:27:03.531Z,13.60
2017-09-11T04:29:30.238Z,13.50
2017-09-11T04:31:56.290Z,13.50
2017-09-11T04:34:22.236Z,13.50
2017-09-11T04:36:48.149Z,13.50
2017-09-11T04:39:14.886Z,13.50
2017-09-11T04:41:41.630Z,13.50
2017-09-11T04:44:09.397Z,13.50
2017-09-11T04:46:35.401Z,13.50
2017-09-11T04:49:02.380Z,13.50
2017-09-11T04:51:33.732Z,13.50
2017-09-11T04:54:20.301Z,13.50
2017-09-11T04:56:48.284Z,13.50
2017-09-11T04:59:14.326Z,13.60
2017-09-11T05:01:42.298Z,13.60
2017-09-11T05:04:08.341Z,13.60
2017-09-11T05:06:35.090Z,13.70
2017-09-11T05:09:08.086Z,13.70
2017-09-11T05:11:38.802Z,13.70
2017-09-11T05:14:11.089Z,13.70
2017-09-11T05:16:38.872Z,13.70
2017-09-11T05:19:04.873Z,13.70
2017-09-11T05:21:34.269Z,13.60
2017-09-11T05:24:00.309Z,13.50
2017-09-11T05:26:29.027Z,13.40
2017-09-11T05:28:57.120Z,13.40
2017-09-11T05:31:23.171Z,13.40
2017-09-11T05:33:55.705Z,13.20
2017-09-11T05:36:30.482Z,13.10
2017-09-11T05:38:56.441Z,13.10
2017-09-11T05:41:22.522Z,13.10
2017-09-11T05:43:50.558Z,13.00
2017-09-11T05:46:18.332Z,13.00
2017-09-11T05:48:47.123Z,13.00
2017-09-11T05:51:13.162Z,12.90
2017-09-11T05:53:44.198Z,12.90
2017-09-11T05:56:11.994Z,12.80
2017-09-11T05:58:39.035Z,12.80
2017-09-11T06:01:10.575Z,12.80
2017-09-11T06:03:37.615Z,12.70
2017-09-11T06:06:21.610Z,12.60
2017-09-11T06:08:47.572Z,12.60
2017-09-11T06:11:13.614Z,12.60
2017-09-11T06:13:43.006Z,12.60
2017-09-11T06:16:09.033Z,12.60
2017-09-11T06:18:35.065Z,12.60
2017-09-11T06:21:01.118Z,12.60
2017-09-11T06:23:29.833Z,12.70
2017-09-11T06:25:56.838Z,12.70
2017-09-11T06:28:31.282Z,12.70
2017-09-11T06:31:05.721Z,12.70
2017-09-11T06:33:38.297Z,12.60
2017-09-11T06:36:07.592Z,12.60
2017-09-11T06:38:44.988Z,12.60
2017-09-11T06:41:12.982Z,12.50
2017-09-11T06:43:44.175Z,12.50
2017-09-11T06:46:10.275Z,12.60
2017-09-11T06:48:43.622Z,12.60
2017-09-11T06:51:15.294Z,12.70
2017-09-11T06:59:38.292Z,12.70
2017-09-11T07:02:14.913Z,12.70
2017-09-11T07:04:43.893Z,12.80
2017-09-11T07:07:10.719Z,12.90
2017-09-11T07:09:37.713Z,12.90
2017-09-11T07:12:17.709Z,13.00
2017-09-11T07:14:44.705Z,12.90
2017-09-11T07:17:11.381Z,13.20
2017-09-11T07:19:37.377Z,13.10
2017-09-11T07:22:04.113Z,13.20
2017-09-11T07:24:30.155Z,13.20
2017-09-11T07:26:56.898Z,13.30
2017-09-11T07:29:26.228Z,13.30
2017-09-11T07:31:57.400Z,13.30
2017-09-11T07:34:23.377Z,13.40
2017-09-11T07:36:52.069Z,13.50
2017-09-11T07:39:25.226Z,13.60
2017-09-11T07:41:51.185Z,13.60
2017-09-11T07:44:17.213Z,13.60
2017-09-11T07:46:45.177Z,13.60
2017-09-11T07:49:12.139Z,13.60
2017-09-11T07:51:38.886Z,13.60
2017-09-11T07:54:08.918Z,13.60
2017-09-11T07:56:34.920Z,13.60
2017-09-11T07:59:00.849Z,13.60
2017-09-11T08:01:29.870Z,13.60
2017-09-11T08:03:57.564Z,13.70
2017-09-11T08:06:23.558Z,13.60
2017-09-11T08:08:50.353Z,13.70
2017-09-11T08:11:19.598Z,13.70
2017-09-11T08:13:45.625Z,13.70
2017-09-11T08:16:11.674Z,13.80
2017-09-11T08:18:42.409Z,13.80
2017-09-11T08:21:09.142Z,13.90
2017-09-11T08:23:35.070Z,13.80
2017-09-11T08:26:01.102Z,13.90
2017-09-11T08:28:27.133Z,13.90
2017-09-11T08:30:55.093Z,14.00
2017-09-11T08:33:22.059Z,14.00
2017-09-11T08:35:49.997Z,14.00
2017-09-11T08:38:15.950Z,14.10
2017-09-11T08:40:42.903Z,14.20
2017-09-11T08:43:14.861Z,14.30
2017-09-11T08:45:46.429Z,14.30
2017-09-11T08:48:14.194Z,14.30
2017-09-11T08:50:50.350Z,14.20
2017-09-11T08:53:16.379Z,14.20
2017-09-11T08:55:42.412Z,14.20
2017-09-11T08:58:08.457Z,14.20
2017-09-11T09:00:34.401Z,14.20
2017-09-11T09:03:07.065Z,14.30
2017-09-11T09:05:40.889Z,14.50
2017-09-11T09:08:07.906Z,14.50
2017-09-11T09:10:41.533Z,14.60
2017-09-11T09:13:12.063Z,14.60
2017-09-11T09:15:39.820Z,14.60
2017-09-11T09:18:10.267Z,14.60
2017-09-11T09:20:36.281Z,14.60
2017-09-11T09:23:14.203Z,14.60
2017-09-11T09:25:47.930Z,14.60
2017-09-11T09:28:13.864Z,14.70
2017-09-11T09:30:51.007Z,14.80
2017-09-11T09:33:18.806Z,14.80
2017-09-11T09:35:48.374Z,14.70
2017-09-11T09:38:16.398Z,14.70
2017-09-11T09:40:45.809Z,14.70
2017-09-11T09:43:11.758Z,14.70
2017-09-11T09:45:42.826Z,14.90
2017-09-11T09:48:08.863Z,14.90
2017-09-11T09:50:40.340Z,15.00
2017-09-11T09:53:11.766Z,15.00
2017-09-11T09:55:46.234Z,15.20
2017-09-11T09:58:18.678Z,15.20
2017-09-11T10:00:52.286Z,15.30
2017-09-11T10:03:18.265Z,15.20
2017-09-11T10:05:44.198Z,15.30
2017-09-11T10:08:21.664Z,15.30
2017-09-11T10:10:53.162Z,15.30
2017-09-11T10:13:21.950Z,15.50
2017-09-11T10:15:50.636Z,15.60
2017-09-11T10:18:16.575Z,15.60
2017-09-11T10:20:45.232Z,15.80
2017-09-11T10:23:14.255Z,15.80
2017-09-11T10:25:41.270Z,16.00
2017-09-11T10:28:08.257Z,16.00
2017-09-11T10:30:34.195Z,16.00
2017-09-11T10:33:15.406Z,16.10
2017-09-11T10:35:44.985Z,16.10
2017-09-11T10:38:21.790Z,16.40
2017-09-11T10:40:58.671Z,16.30
2017-09-11T10:43:24.610Z,16.70
2017-09-11T10:45:52.645Z,17.00
2017-09-11T10:48:25.545Z,17.70
2017-09-11T10:50:53.478Z,17.60
2017-09-11T10:53:19.509Z,17.90
2017-09-11T10:55:58.170Z,18.00
2017-09-11T10:58:26.206Z,17.80
2017-09-11T11:03:55.639Z,17.80
2017-09-11T11:06:47.311Z,17.70
2017-09-11T11:09:31.342Z,17.70
2017-09-11T11:12:03.883Z,17.70
2017-09-11T11:14:33.465Z,17.70
2017-09-11T11:19:52.659Z,18.00
2017-09-11T11:22:38.190Z,18.20
2017-09-11T11:25:14.854Z,18.20
2017-09-11T11:27:47.070Z,18.20
2017-09-11T11:30:13.750Z,18.30
2017-09-11T11:32:53.286Z,18.30
2017-09-11T11:35:23.669Z,18.30
2017-09-11T11:37:59.246Z,18.40
2017-09-11T11:40:32.142Z,18.40
2017-09-11T11:43:05.106Z,18.40
2017-09-11T11:45:35.032Z,18.20
2017-09-11T11:48:11.907Z,18.10
2017-09-11T11:50:54.551Z,17.80
2017-09-11T11:53:24.403Z,17.80
2017-09-11T11:56:00.800Z,17.80
2017-09-11T11:58:29.594Z,18.00
2017-09-11T12:01:06.902Z,18.20
2017-09-11T12:03:32.849Z,18.20
2017-09-11T12:06:09.877Z,18.40
2017-09-11T12:08:36.564Z,18.60
2017-09-11T12:11:02.643Z,18.50
2017-09-11T12:13:35.458Z,18.40
2017-09-11T12:18:58.907Z,18.30
2017-09-11T12:21:37.537Z,18.10
2017-09-11T12:24:08.964Z,18.10
2017-09-11T12:26:35.938Z,17.90
2017-09-11T12:29:09.272Z,18.00
2017-09-11T12:31:56.300Z,18.00
2017-09-11T12:34:43.095Z,18.00
2017-09-11T12:37:21.797Z,18.00
2017-09-11T12:39:51.470Z,18.00
2017-09-11T12:42:18.390Z,17.90
2017-09-11T12:44:44.329Z,17.90
2017-09-11T12:47:21.875Z,18.10
2017-09-11T12:50:01.514Z,18.10
2017-09-11T12:52:40.115Z,18.20
2017-09-11T12:55:09.698Z,18.30
2017-09-11T12:57:50.198Z,18.40
2017-09-11T13:00:17.240Z,18.40
2017-09-11T13:02:44.257Z,18.50
2017-09-11T13:05:25.910Z,18.60
2017-09-11T13:08:03.511Z,18.60
2017-09-11T13:10:30.556Z,18.50
2017-09-11T13:12:58.561Z,18.20
2017-09-11T13:15:27.861Z,17.80
2017-09-11T13:17:57.385Z,17.00
2017-09-11T13:20:23.406Z,16.20
2017-09-11T13:22:54.446Z,15.90
2017-09-11T13:25:21.385Z,15.80
2017-09-11T13:27:47.413Z,15.80
2017-09-11T13:30:13.477Z,16.00
2017-09-11T13:35:36.217Z,16.40
2017-09-11T13:38:13.971Z,16.80
2017-09-11T13:40:42.099Z,16.80
2017-09-11T13:43:17.157Z,17.30
2017-09-11T13:48:57.370Z,18.00
2017-09-11T13:51:23.410Z,19.20
2017-09-11T13:53:57.546Z,20.70
2017-09-11T13:56:28.492Z,21.20
2017-09-11T13:58:57.965Z,21.20
2017-09-11T14:01:45.579Z,21.60
2017-09-11T14:04:18.518Z,22.10
2017-09-11T14:06:52.929Z,22.30
2017-09-11T14:09:30.526Z,21.90
2017-09-11T14:11:58.503Z,21.40
2017-09-11T14:14:33.839Z,22.60
2017-09-11T14:17:11.521Z,22.50
2017-09-11T14:19:46.066Z,22.50
2017-09-11T14:22:22.515Z,22.50
2017-09-11T14:24:50.296Z,21.10
2017-09-11T14:27:19.564Z,20.90
2017-09-11T14:30:03.680Z,20.90
2017-09-11T14:32:37.333Z,20.70
2017-09-11T14:35:05.200Z,20.80
2017-09-11T14:37:34.421Z,20.80
2017-09-11T14:40:00.358Z,20.70
2017-09-11T14:42:26.302Z,20.90
2017-09-11T14:44:52.246Z,21.90
2017-09-11T14:47:18.180Z,22.80
2017-09-11T14:49:44.247Z,23.50
2017-09-11T14:52:10.234Z,23.80
2017-09-11T14:54:36.156Z,23.90
2017-09-11T14:57:02.126Z,24.20
2017-09-11T14:59:28.131Z,24.30
2017-09-11T15:01:54.096Z,24.50
2017-09-11T15:04:20.065Z,24.10
2017-09-11T15:06:46.005Z,24.40
2017-09-11T15:09:11.980Z,24.80
2017-09-11T15:11:37.947Z,25.00
2017-09-11T15:14:03.870Z,24.80
2017-09-11T15:16:29.826Z,24.40
2017-09-11T15:18:55.910Z,24.30
2017-09-11T15:21:21.834Z,23.30
2017-09-11T15:23:47.763Z,22.00
2017-09-11T15:26:13.686Z,21.30
2017-09-11T15:28:39.621Z,20.80
2017-09-11T15:31:05.582Z,20.50
2017-09-11T15:33:31.515Z,20.40
2017-09-11T15:35:57.451Z,20.60
2017-09-11T15:38:23.427Z,20.60
2017-09-11T15:40:49.382Z,21.00
2017-09-11T15:43:15.315Z,21.60
2017-09-11T15:45:41.269Z,21.50
2017-09-11T15:48:07.948Z,21.20
2017-09-11T15:50:33.879Z,21.20
2017-09-11T15:52:59.796Z,20.80
2017-09-11T15:55:25.741Z,20.40
2017-09-11T15:57:51.674Z,20.20
2017-09-11T16:00:17.610Z,20.10
2017-09-11T16:02:56.723Z,19.70
2017-09-11T16:08:15.795Z,19.10
2017-09-11T16:10:41.751Z,18.90
2017-09-11T16:13:07.695Z,18.70
2017-09-11T16:15:33.615Z,18.70
2017-09-11T16:17:59.554Z,18.40
2017-09-11T16:20:30.785Z,18.10
2017-09-11T16:22:56.726Z,18.10
2017-09-11T16:25:22.666Z,17.90
2017-09-11T16:27:48.622Z,17.60
2017-09-11T16:30:14.579Z,17.30
2017-09-11T16:32:40.518Z,17.00
2017-09-11T16:35:09.553Z,16.80
2017-09-11T16:37:40.062Z,16.50
2017-09-11T16:40:06.006Z,16.50
2017-09-11T16:42:36.048Z,16.20
2017-09-11T16:45:01.992Z,16.20
2017-09-11T16:47:32.298Z,16.00
2017-09-11T16:49:59.954Z,16.20
2017-09-11T16:52:27.622Z,16.40
2017-09-11T16:54:53.602Z,16.40
2017-09-11T16:57:19.546Z,16.40
2017-09-11T16:59:45.474Z,16.50
2017-09-11T17:02:11.427Z,16.40
2017-09-11T17:04:38.107Z,16.10
2017-09-11T17:07:06.039Z,16.10
2017-09-11T17:09:31.971Z,16.10
2017-09-11T17:11:59.647Z,16.10
2017-09-11T17:14:26.327Z,16.10
2017-09-11T17:16:52.262Z,16.10
2017-09-11T17:19:18.197Z,16.10
2017-09-11T17:21:44.187Z,16.00
2017-09-11T17:24:10.163Z,16.10
2017-09-11T17:26:36.101Z,16.10
2017-09-11T17:29:02.033Z,16.10
2017-09-11T17:31:43.599Z,16.20
2017-09-11T17:37:04.750Z,16.10
2017-09-11T17:39:31.067Z,16.00
2017-09-11T17:41:57.121Z,15.80
2017-09-11T17:44:26.910Z,15.60
2017-09-11T17:46:52.845Z,15.60
2017-09-11T17:49:18.849Z,15.50
2017-09-11T17:51:48.328Z,15.50
2017-09-11T17:54:14.499Z,15.40
2017-09-11T17:56:42.207Z,15.40
2017-09-11T17:59:08.161Z,15.40
2017-09-11T18:01:34.138Z,15.50
2017-09-11T18:04:03.694Z,15.40
2017-09-11T18:06:29.660Z,15.40
2017-09-11T18:08:55.614Z,15.40
2017-09-11T18:12:01.036Z,16.40
2017-09-11T18:14:26.982Z,15.40
2017-09-11T18:16:53.693Z,15.20
2017-09-11T18:19:19.702Z,15.10
2017-09-11T18:21:45.634Z,15.10
2017-09-11T18:24:11.583Z,15.20
2017-09-11T18:26:37.506Z,15.10
2017-09-11T18:29:03.461Z,15.10
2017-09-11T18:31:32.659Z,15.10
2017-09-11T18:33:58.640Z,15.10
2017-09-11T18:36:24.579Z,15.10
2017-09-11T18:38:51.010Z,15.10
2017-09-11T18:41:16.986Z,15.10
2017-09-11T18:43:42.949Z,15.00
2017-09-11T18:46:10.139Z,15.00
2017-09-11T18:48:36.086Z,15.10
2017-09-11T18:51:02.022Z,15.10
2017-09-11T18:53:27.954Z,15.10
2017-09-11T18:55:54.625Z,15.20
2017-09-11T18:58:20.609Z,15.20
2017-09-11T19:00:49.633Z,15.20
2017-09-11T19:03:16.321Z,15.10
2017-09-11T19:05:42.270Z,15.10
2017-09-11T19:08:08.231Z,15.10
2017-09-11T19:10:38.560Z,15.00
2017-09-11T19:13:05.226Z,15.00
2017-09-11T19:15:34.646Z,15.00
2017-09-11T19:18:00.627Z,15.00
2017-09-11T19:20:26.582Z,15.00
2017-09-11T19:22:52.568Z,15.00
2017-09-11T19:25:18.532Z,14.90
2017-09-11T19:27:45.214Z,14.60
2017-09-11T19:30:11.191Z,14.60
2017-09-11T19:32:44.210Z,14.40
2017-09-11T19:35:16.786Z,14.30
2017-09-11T19:37:48.221Z,14.30
2017-09-11T19:40:37.446Z,14.10
2017-09-11T19:43:24.857Z,14.10
2017-09-11T19:45:50.823Z,14.00
2017-09-11T19:48:30.963Z,14.00
2017-09-11T19:51:05.320Z,13.90
2017-09-11T19:53:46.737Z,13.90
2017-09-11T19:56:17.556Z,13.90
2017-09-11T19:58:56.661Z,13.90
2017-09-11T20:01:47.315Z,13.90
2017-09-11T20:04:19.944Z,13.90
2017-09-11T20:06:53.935Z,13.90
2017-09-11T20:09:34.149Z,13.90
2017-09-11T20:12:04.707Z,13.90
2017-09-11T20:14:52.818Z,13.70
2017-09-11T20:17:19.857Z,13.70
2017-09-11T20:19:54.433Z,13.80
2017-09-11T20:22:33.490Z,13.80
2017-09-11T20:25:07.878Z,13.70
2017-09-11T20:27:41.647Z,13.80
2017-09-11T20:30:07.729Z,13.70
2017-09-11T20:32:40.582Z,13.60
2017-09-11T20:35:07.577Z,13.50
2017-09-11T20:37:34.596Z,13.50
2017-09-11T20:40:22.290Z,13.50
2017-09-11T20:42:48.369Z,13.50
2017-09-11T20:45:18.387Z,13.50
2017-09-11T20:48:01.862Z,13.50
2017-09-11T20:50:28.004Z,13.50
2017-09-11T20:52:57.730Z,13.50
2017-09-11T20:55:45.025Z,13.60
2017-09-11T20:58:18.504Z,13.60
2017-09-11T21:00:44.485Z,13.70
2017-09-11T21:03:15.074Z,13.80
2017-09-11T21:05:42.091Z,13.80
2017-09-11T21:08:26.321Z,13.80
2017-09-11T21:11:03.210Z,13.90
2017-09-11T21:13:33.807Z,13.90
2017-09-11T21:16:09.169Z,13.90
2017-09-11T21:18:42.553Z,13.90
2017-09-11T21:21:13.242Z,13.90
2017-09-11T21:23:47.613Z,13.90
2017-09-11T21:26:20.924Z,14.00
2017-09-11T21:28:53.330Z,13.90
2017-09-11T21:31:19.250Z,14.00
2017-09-11T21:33:46.275Z,14.00
2017-09-11T21:36:25.521Z,14.00
2017-09-11T21:38:58.989Z,14.00
2017-09-11T21:41:31.567Z,14.00
2017-09-11T21:44:06.414Z,14.00
2017-09-11T21:46:40.121Z,14.00
2017-09-11T21:49:10.033Z,14.00
2017-09-11T21:51:36.834Z,14.00
2017-09-11T21:54:06.201Z,14.00
2017-09-11T21:56:36.117Z,14.00
2017-09-11T21:59:07.541Z,14.00
2017-09-11T22:01:43.922Z,14.10
2017-09-11T22:04:11.682Z,14.10
2017-09-11T22:06:40.480Z,14.10
2017-09-11T22:09:11.633Z,14.00
2017-09-11T22:11:49.557Z,14.10
2017-09-11T22:14:26.854Z,14.00
2017-09-11T22:17:03.394Z,14.10
2017-09-11T22:19:35.069Z,14.10
2017-09-11T22:22:07.626Z,14.20
2017-09-11T22:24:40.242Z,14.10
2017-09-11T22:27:13.643Z,14.10
2017-09-11T22:29:46.902Z,14.10
2017-09-11T22:32:19.873Z,14.10
2017-09-11T22:34:47.654Z,14.10
2017-09-11T22:37:25.670Z,14.10
2017-09-11T22:39:57.099Z,14.10
2017-09-11T22:42:31.825Z,14.10
2017-09-11T22:45:05.358Z,14.10
2017-09-11T22:47:35.245Z,14.10
2017-09-11T22:50:09.394Z,14.10
2017-09-11T22:52:43.494Z,14.10
2017-09-11T22:55:16.778Z,14.10
2017-09-11T22:57:44.509Z,14.20
2017-09-11T23:00:10.578Z,14.10
2017-09-11T23:02:37.250Z,14.20
2017-09-11T23:05:28.074Z,14.10
2017-09-11T23:07:57.797Z,14.20
2017-09-11T23:10:34.191Z,14.20
2017-09-11T23:13:06.980Z,14.00
2017-09-11T23:15:40.372Z,13.90
2017-09-11T23:18:13.071Z,14.00
2017-09-11T23:20:45.618Z,13.90
2017-09-11T23:23:19.035Z,14.00
2017-09-11T23:25:52.426Z,14.00
2017-09-11T23:28:23.042Z,14.00
2017-09-11T23:30:55.424Z,13.90
2017-09-11T23:33:32.958Z,13.90
2017-09-11T23:36:03.638Z,13.90
2017-09-11T23:38:37.150Z,13.90
2017-09-11T23:41:08.725Z,13.90
2017-09-11T23:43:34.754Z,13.90
2017-09-11T23:46:04.535Z,13.90
2017-09-11T23:48:30.566Z,14.00
2017-09-11T23:50:56.597Z,13.90
2017-09-11T23:53:22.622Z,13.90
2017-09-11T23:55:56.559Z,13.90
2017-09-11T23:58:35.371Z,13.90
